Time;durP1;ratioP1;P1;durP2;ratioP2;P2;SDS_P1;SDS_P2;PMS_P1;PMS_P2;Temp;Humidity;BMP_temperature;BMP_pressure;BME280_temperature;BME280_humidity;BME280_pressure;Samples;Min_cycle;Max_cycle;Signal;HPM_P1;HPM_P2
2023/07/23 00:01:33;;;;;;;24.40;23.60;;;24.20;60.50;;;;;;5116700;28;20477;-65
2023/07/23 00:03:59;;;;;;;25.67;24.77;;;24.20;60.50;;;;;;5117153;28;20488;-64
2023/07/23 00:06:26;;;;;;;26.00;25.10;;;24.20;60.50;;;;;;5117279;28;20560;-64
2023/07/23 00:08:55;;;;;;;25.23;24.33;;;24.20;60.60;;;;;;5117123;28;20580;-64
2023/07/23 00:11:21;;;;;;;25.73;24.80;;;24.30;60.70;;;;;;5116655;28;20484;-64
2023/07/23 00:13:48;;;;;;;24.67;23.77;;;24.20;60.50;;;;;;5116380;28;20921;-65
2023/07/23 00:16:15;;;;;;;23.60;22.80;;;24.30;60.70;;;;;;5116389;28;20885;-65
2023/07/23 00:18:42;;;;;;;26.23;25.33;;;24.20;60.50;;;;;;5116174;28;20501;-64
2023/07/23 00:21:09;;;;;;;24.50;23.70;;;24.30;60.70;;;;;;5116273;28;20476;-65
2023/07/23 00:23:36;;;;;;;24.80;23.90;;;24.20;60.60;;;;;;5116690;28;20445;-64
2023/07/23 00:26:04;;;;;;;26.30;25.40;;;24.20;60.60;;;;;;5116161;28;20476;-65
2023/07/23 00:28:31;;;;;;;26.00;25.10;;;24.20;60.60;;;;;;5115823;28;20488;-65
2023/07/23 00:30:58;;;;;;;24.87;24.07;;;24.20;60.60;;;;;;5115899;28;20533;-65
2023/07/23 00:33:25;;;;;;;24.50;23.70;;;24.20;60.50;;;;;;5116020;28;20453;-65
2023/07/23 00:35:52;;;;;;;25.27;24.37;;;24.20;60.60;;;;;;5116272;28;20481;-66
2023/07/23 00:38:19;;;;;;;24.17;23.37;;;24.20;60.60;;;;;;5115591;28;20540;-65
2023/07/23 00:40:46;;;;;;;23.63;22.73;;;24.20;60.60;;;;;;5116060;28;20476;-65
2023/07/23 00:43:14;;;;;;;26.77;25.77;;;24.20;60.60;;;;;;5116125;28;20441;-65
2023/07/23 00:45:41;;;;;;;28.77;27.77;;;24.20;60.60;;;;;;5116072;28;20500;-64
2023/07/23 00:48:08;;;;;;;25.00;24.20;;;24.20;60.70;;;;;;5115516;28;20508;-64
2023/07/23 00:50:35;;;;;;;24.70;23.90;;;24.20;60.70;;;;;;5115901;28;20888;-65
2023/07/23 00:53:02;;;;;;;26.47;25.47;;;24.20;60.70;;;;;;5116421;28;20528;-65
2023/07/23 00:55:29;;;;;;;25.60;24.70;;;24.20;60.70;;;;;;5116962;28;20473;-63
2023/07/23 00:57:56;;;;;;;24.50;23.70;;;24.20;60.70;;;;;;5115824;28;20505;-65
2023/07/23 01:00:24;;;;;;;25.00;24.10;;;24.20;60.70;;;;;;5114927;28;20529;-66
2023/07/23 01:02:51;;;;;;;26.93;25.97;;;24.20;60.80;;;;;;5116767;28;20474;-64
2023/07/23 01:05:18;;;;;;;24.27;23.47;;;24.20;60.80;;;;;;5117866;28;20473;-64
2023/07/23 01:07:47;;;;;;;25.43;24.53;;;24.20;60.80;;;;;;5117750;28;20982;-64
2023/07/23 01:10:15;;;;;;;25.77;24.87;;;24.20;60.80;;;;;;5116980;28;20815;-65
2023/07/23 01:12:42;;;;;;;25.27;24.43;;;24.20;60.80;;;;;;5117346;28;20471;-65
2023/07/23 01:15:09;;;;;;;24.67;23.73;;;24.20;60.80;;;;;;5115987;28;20480;-57
2023/07/23 01:17:39;;;;;;;25.40;24.50;;;24.20;60.80;;;;;;5113668;28;20548;-60
2023/07/23 01:20:08;;;;;;;25.17;24.27;;;24.20;60.80;;;;;;5113937;28;20981;-58
2023/07/23 01:22:37;;;;;;;24.60;23.80;;;24.20;60.80;;;;;;5113902;28;20477;-62
2023/07/23 01:25:05;;;;;;;25.27;24.37;;;24.20;60.80;;;;;;5113847;28;20528;-61
2023/07/23 01:27:32;;;;;;;23.80;23.00;;;24.20;60.90;;;;;;5113416;28;20485;-64
2023/07/23 01:29:59;;;;;;;26.30;25.40;;;24.20;60.90;;;;;;5113759;28;20480;-60
2023/07/23 01:32:26;;;;;;;23.93;23.13;;;24.20;60.80;;;;;;5113716;28;20875;-60
2023/07/23 01:34:55;;;;;;;25.40;24.50;;;24.10;60.70;;;;;;5115014;28;20473;-66
2023/07/23 01:37:22;;;;;;;24.70;23.70;;;24.20;60.90;;;;;;5114422;28;20493;-65
2023/07/23 01:39:51;;;;;;;25.03;24.13;;;24.20;60.90;;;;;;5115350;28;20524;-65
2023/07/23 01:42:18;;;;;;;25.20;24.30;;;24.10;60.70;;;;;;5115753;28;20528;-66
2023/07/23 01:44:45;;;;;;;25.13;24.23;;;24.20;60.90;;;;;;5114772;28;20528;-65
2023/07/23 01:47:12;;;;;;;26.10;25.20;;;24.20;60.90;;;;;;5113896;28;20549;-66
2023/07/23 01:49:39;;;;;;;23.60;22.80;;;24.10;61.50;;;;;;5114463;28;20946;-65
2023/07/23 01:52:06;;;;;;;26.23;25.33;;;24.10;60.80;;;;;;5115992;28;20529;-64
2023/07/23 01:54:33;;;;;;;25.10;24.20;;;24.10;60.80;;;;;;5116076;28;20885;-65
2023/07/23 01:57:02;;;;;;;25.20;24.40;;;24.20;60.90;;;;;;5115227;28;20858;-65
2023/07/23 01:59:29;;;;;;;24.27;23.37;;;24.10;60.80;;;;;;5114811;28;20448;-65
2023/07/23 02:01:56;;;;;;;25.23;24.43;;;24.10;60.80;;;;;;5114621;28;20532;-64
2023/07/23 02:04:23;;;;;;;24.97;24.07;;;24.10;60.80;;;;;;5114808;28;20532;-64
2023/07/23 02:06:50;;;;;;;24.60;23.53;;;24.10;60.80;;;;;;5114285;28;20568;-65
2023/07/23 02:09:17;;;;;;;25.90;25.00;;;24.10;60.70;;;;;;5114584;28;20579;-64
2023/07/23 02:11:44;;;;;;;25.27;24.37;;;24.10;60.80;;;;;;5113919;28;20480;-65
2023/07/23 02:14:12;;;;;;;26.50;25.60;;;24.10;61.50;;;;;;5113716;28;20480;-65
2023/07/23 02:16:39;;;;;;;24.50;23.70;;;24.10;60.80;;;;;;5113167;28;20533;-63
2023/07/23 02:19:06;;;;;;;25.47;24.63;;;24.10;60.70;;;;;;5113201;28;20902;-64
2023/07/23 02:21:32;;;;;;;25.13;24.33;;;24.10;60.80;;;;;;5113794;28;20520;-65
2023/07/23 02:23:59;;;;;;;26.37;25.47;;;24.10;60.90;;;;;;5114046;28;20484;-64
2023/07/23 02:26:26;;;;;;;24.67;23.87;;;24.10;60.80;;;;;;5113828;28;20487;-64
2023/07/23 02:28:53;;;;;;;24.90;24.10;;;24.10;60.80;;;;;;5113657;28;20548;-62
2023/07/23 02:31:21;;;;;;;25.00;24.20;;;24.10;60.80;;;;;;5114290;28;20470;-64
2023/07/23 02:33:48;;;;;;;25.90;25.03;;;24.10;60.80;;;;;;5113939;28;20469;-65
2023/07/23 02:36:15;;;;;;;27.40;26.40;;;24.10;60.80;;;;;;5114067;28;20510;-64
2023/07/23 02:38:43;;;;;;;25.47;24.50;;;24.10;60.80;;;;;;5114039;28;20549;-65
2023/07/23 02:41:10;;;;;;;25.90;25.03;;;24.10;60.80;;;;;;5114550;28;20811;-64
2023/07/23 02:43:36;;;;;;;26.57;25.67;;;24.10;60.80;;;;;;5114162;28;20473;-66
2023/07/23 02:46:03;;;;;;;24.77;23.93;;;24.10;60.80;;;;;;5112735;28;20525;-62
2023/07/23 02:48:32;;;;;;;25.50;24.63;;;24.10;60.80;;;;;;5112187;28;20480;-62
2023/07/23 02:50:59;;;;;;;26.77;25.87;;;24.10;60.80;;;;;;5112309;28;20480;-61
2023/07/23 02:53:26;;;;;;;24.43;23.57;;;24.10;60.80;;;;;;5112284;28;20524;-61
2023/07/23 02:55:54;;;;;;;24.90;24.00;;;24.10;60.80;;;;;;5112147;28;20498;-62
2023/07/23 02:58:21;;;;;;;25.83;24.93;;;24.10;60.80;;;;;;5112452;28;20477;-60
2023/07/23 03:00:48;;;;;;;24.53;23.73;;;24.10;60.70;;;;;;5112169;28;20549;-61
2023/07/23 03:03:15;;;;;;;24.63;23.83;;;24.10;60.70;;;;;;5112153;28;20500;-60
2023/07/23 03:05:44;;;;;;;25.70;24.80;;;24.10;60.70;;;;;;5112245;28;20434;-60
2023/07/23 03:08:11;;;;;;;25.53;24.63;;;24.10;60.70;;;;;;5111671;28;20565;-59
2023/07/23 03:10:37;;;;;;;25.27;24.37;;;24.10;60.70;;;;;;5111989;28;20955;-57
2023/07/23 03:13:04;;;;;;;25.83;24.93;;;24.10;60.70;;;;;;5111975;28;20529;-62
2023/07/23 03:15:31;;;;;;;24.20;23.40;;;24.10;60.70;;;;;;5111966;28;20528;-62
2023/07/23 03:17:58;;;;;;;25.10;24.30;;;24.10;60.80;;;;;;5111647;28;20457;-60
2023/07/23 03:20:25;;;;;;;25.93;25.03;;;24.10;60.70;;;;;;5111942;28;20539;-61
2023/07/23 03:22:53;;;;;;;24.40;23.60;;;24.10;60.80;;;;;;5112323;28;20501;-57
2023/07/23 03:25:20;;;;;;;24.77;23.87;;;24.10;60.80;;;;;;5116088;28;20537;-57
2023/07/23 03:27:47;;;;;;;26.03;25.10;;;24.10;60.70;;;;;;5115783;28;20903;-62
2023/07/23 03:30:14;;;;;;;26.17;25.27;;;24.10;60.80;;;;;;5116138;28;20872;-60
2023/07/23 03:32:41;;;;;;;25.77;24.87;;;24.10;60.70;;;;;;5116067;28;20520;-61
2023/07/23 03:35:08;;;;;;;24.50;23.70;;;24.10;60.70;;;;;;5116069;28;20449;-60
2023/07/23 03:37:35;;;;;;;27.03;26.07;;;24.00;60.70;;;;;;5115881;28;20544;-63
2023/07/23 03:40:04;;;;;;;25.40;24.50;;;24.00;60.70;;;;;;5116974;28;20513;-65
2023/07/23 03:42:31;;;;;;;26.33;25.33;;;24.00;60.70;;;;;;5116203;28;20529;-61
2023/07/23 03:44:57;;;;;;;25.40;24.50;;;24.10;60.80;;;;;;5115795;28;20477;-62
2023/07/23 03:47:24;;;;;;;24.87;23.97;;;24.10;60.80;;;;;;5115417;28;20567;-62
2023/07/23 03:49:51;;;;;;;24.37;23.57;;;24.00;60.70;;;;;;5115765;28;20521;-64
2023/07/23 03:52:18;;;;;;;25.33;24.43;;;24.10;60.80;;;;;;5115640;28;20476;-61
2023/07/23 03:54:45;;;;;;;24.40;23.50;;;24.10;60.70;;;;;;5115551;28;20457;-60
2023/07/23 03:57:13;;;;;;;25.83;24.93;;;24.00;60.60;;;;;;5115469;28;20801;-65
2023/07/23 03:59:42;;;;;;;26.70;25.80;;;24.10;60.70;;;;;;5117070;28;20475;-65
2023/07/23 04:02:09;;;;;;;25.50;24.60;;;24.00;60.60;;;;;;5116929;28;20480;-64
2023/07/23 04:04:38;;;;;;;25.43;24.53;;;24.00;60.60;;;;;;5116525;28;20487;-65
2023/07/23 04:07:06;;;;;;;27.13;26.23;;;24.00;60.60;;;;;;5116828;28;20473;-63
2023/07/23 04:09:33;;;;;;;27.70;26.80;;;24.00;60.60;;;;;;5115643;28;20516;-58
2023/07/23 04:12:00;;;;;;;28.73;27.63;;;24.00;60.60;;;;;;5115214;28;20950;-61
2023/07/23 04:14:28;;;;;;;28.30;27.07;;;24.00;60.60;;;;;;5115236;28;20480;-63
2023/07/23 04:16:56;;;;;;;28.77;27.77;;;24.00;60.60;;;;;;5114888;28;20528;-62
2023/07/23 04:19:23;;;;;;;29.37;28.30;;;24.00;60.60;;;;;;5115140;28;20531;-59
2023/07/23 04:21:50;;;;;;;28.60;27.60;;;24.00;60.70;;;;;;5115096;28;20488;-60
2023/07/23 04:24:17;;;;;;;28.83;27.83;;;24.00;60.60;;;;;;5114992;28;20536;-57
2023/07/23 04:26:44;;;;;;;28.40;27.40;;;24.00;60.60;;;;;;5114925;28;20860;-59
2023/07/23 04:29:10;;;;;;;27.97;26.97;;;24.00;60.60;;;;;;5114744;28;20485;-59
2023/07/23 04:31:39;;;;;;;29.33;28.33;;;24.00;60.60;;;;;;5115055;28;20484;-64
2023/07/23 04:34:06;;;;;;;28.77;27.43;;;24.00;60.60;;;;;;5114764;28;20516;-65
2023/07/23 04:36:33;;;;;;;28.50;27.50;;;24.00;60.60;;;;;;5114582;28;20441;-61
2023/07/23 04:39:03;;;;;;;28.97;27.87;;;24.00;60.60;;;;;;5114618;28;20453;-64
2023/07/23 04:41:30;;;;;;;28.07;27.07;;;24.00;60.60;;;;;;5114768;28;20453;-64
2023/07/23 04:43:57;;;;;;;28.63;27.63;;;24.00;60.60;;;;;;5114642;28;20532;-62
2023/07/23 04:46:24;;;;;;;27.70;26.70;;;24.00;60.60;;;;;;5114476;28;20488;-65
2023/07/23 04:48:54;;;;;;;26.93;26.00;;;24.00;60.60;;;;;;5114359;28;20489;-64
2023/07/23 04:51:20;;;;;;;28.17;27.17;;;24.00;60.60;;;;;;5114497;28;20476;-62
2023/07/23 04:53:47;;;;;;;28.73;27.73;;;23.90;60.50;;;;;;5114543;28;20524;-63
2023/07/23 04:56:14;;;;;;;28.33;27.33;;;24.00;60.60;;;;;;5114270;28;20528;-62
2023/07/23 04:58:41;;;;;;;27.03;26.03;;;24.00;60.60;;;;;;5114208;28;20548;-65
2023/07/23 05:01:09;;;;;;;29.40;28.33;;;24.00;60.50;;;;;;5114429;28;20485;-61
2023/07/23 05:03:36;;;;;;;29.70;28.70;;;24.00;60.50;;;;;;5114287;28;20475;-63
2023/07/23 05:06:06;;;;;;;28.60;27.60;;;23.90;60.40;;;;;;5114020;28;20484;-64
2023/07/23 05:08:34;;;;;;;27.47;26.57;;;24.00;60.60;;;;;;5114065;28;20907;-61
2023/07/23 05:11:02;;;;;;;26.77;25.77;;;23.90;60.40;;;;;;5114113;28;20516;-62
2023/07/23 05:13:29;;;;;;;28.80;27.67;;;24.00;60.50;;;;;;5114203;28;20447;-61
2023/07/23 05:15:58;;;;;;;29.30;28.30;;;24.00;60.50;;;;;;5113941;28;20533;-64
2023/07/23 05:18:25;;;;;;;27.77;26.77;;;24.00;60.50;;;;;;5113888;28;20500;-64
2023/07/23 05:20:52;;;;;;;27.53;26.53;;;24.00;60.60;;;;;;5113933;28;20498;-63
2023/07/23 05:23:20;;;;;;;27.57;26.57;;;24.00;60.50;;;;;;5113936;28;20469;-65
2023/07/23 05:25:47;;;;;;;27.70;26.70;;;23.90;60.40;;;;;;5113808;28;20473;-65
2023/07/23 05:28:13;;;;;;;27.93;26.93;;;24.00;60.50;;;;;;5113431;28;20568;-64
2023/07/23 05:30:40;;;;;;;26.97;25.97;;;24.00;60.50;;;;;;5113830;28;20550;-63
2023/07/23 05:33:08;;;;;;;26.80;25.90;;;23.90;60.30;;;;;;5113731;28;20291;-58
2023/07/23 05:35:36;;;;;;;27.37;26.37;;;24.00;60.50;;;;;;5113657;28;20455;-62
2023/07/23 05:38:03;;;;;;;27.60;26.60;;;23.90;60.30;;;;;;5113285;28;20552;-63
2023/07/23 05:40:35;;;;;;;29.83;28.73;;;24.00;60.50;;;;;;5113514;28;20438;-64
2023/07/23 05:43:07;;;;;;;27.67;26.67;;;23.90;60.30;;;;;;5113553;28;20515;-63
2023/07/23 05:45:34;;;;;;;28.10;27.13;;;23.90;60.30;;;;;;5113101;28;20445;-65
2023/07/23 05:48:01;;;;;;;28.43;27.47;;;24.00;60.40;;;;;;5112968;28;20568;-64
2023/07/23 05:50:27;;;;;;;29.60;28.60;;;23.90;60.30;;;;;;5113361;28;20533;-64
2023/07/23 05:52:54;;;;;;;28.73;27.73;;;23.90;60.30;;;;;;5113215;28;20541;-64
2023/07/23 05:55:21;;;;;;;28.93;27.87;;;23.90;60.30;;;;;;5113276;28;20533;-64
2023/07/23 05:57:49;;;;;;;28.63;27.63;;;23.90;60.30;;;;;;5112693;28;20556;-65
2023/07/23 06:00:17;;;;;;;28.70;27.70;;;23.90;60.30;;;;;;5113270;28;20884;-65
2023/07/23 06:02:43;;;;;;;29.60;28.50;;;23.90;60.30;;;;;;5113377;28;20544;-64
2023/07/23 06:05:10;;;;;;;27.40;26.50;;;23.90;60.30;;;;;;5113014;28;20473;-64
2023/07/23 06:07:37;;;;;;;28.30;27.30;;;23.90;60.30;;;;;;5112621;28;20540;-64
2023/07/23 06:10:05;;;;;;;27.77;26.87;;;24.00;60.30;;;;;;5112968;28;20473;-65
2023/07/23 06:12:33;;;;;;;29.33;28.23;;;24.00;60.30;;;;;;5112957;28;20472;-64
2023/07/23 06:15:01;;;;;;;29.97;28.87;;;24.00;60.30;;;;;;5112793;28;20881;-64
2023/07/23 06:17:28;;;;;;;29.60;28.60;;;23.90;60.20;;;;;;5112516;28;20545;-65
2023/07/23 06:19:55;;;;;;;28.87;27.83;;;23.90;60.20;;;;;;5112822;28;20520;-64
2023/07/23 06:22:22;;;;;;;28.40;27.40;;;23.90;60.20;;;;;;5112824;28;20485;-64
2023/07/23 06:24:48;;;;;;;30.97;29.87;;;23.90;60.20;;;;;;5112746;28;20528;-64
2023/07/23 06:27:15;;;;;;;29.20;28.20;;;23.90;60.20;;;;;;5112456;28;20544;-63
2023/07/23 06:29:42;;;;;;;30.73;29.53;;;23.90;60.20;;;;;;5112552;28;20553;-64
2023/07/23 06:32:11;;;;;;;29.30;28.20;;;23.90;60.20;;;;;;5112626;28;20532;-64
2023/07/23 06:34:38;;;;;;;30.80;29.70;;;23.90;60.20;;;;;;5112402;28;20927;-64
2023/07/23 06:37:05;;;;;;;29.80;28.80;;;23.90;60.20;;;;;;5112149;28;20979;-65
2023/07/23 06:39:32;;;;;;;29.07;28.07;;;23.90;60.20;;;;;;5116407;27;20432;-64
2023/07/23 06:41:59;;;;;;;29.67;28.63;;;23.90;60.20;;;;;;5112353;28;20528;-61
2023/07/23 06:44:26;;;;;;;42.67;41.10;;;23.90;60.40;;;;;;5112400;28;20477;-64
2023/07/23 06:46:53;;;;;;;42.60;40.90;;;24.00;59.90;;;;;;5111969;28;20520;-63
2023/07/23 06:49:23;;;;;;;40.00;38.60;;;23.90;59.30;;;;;;5117539;28;20517;-66
2023/07/23 06:51:50;;;;;;;39.50;38.10;;;24.00;59.50;;;;;;5128114;28;20446;-65
2023/07/23 06:54:20;;;;;;;39.13;37.83;;;24.10;59.30;;;;;;5126202;28;20429;-61
2023/07/23 06:56:47;;;;;;;43.00;41.08;;;24.10;59.20;;;;;;5129267;28;20338;-64
2023/07/23 06:59:14;;;;;;;40.20;38.57;;;24.20;58.90;;;;;;5112798;28;20255;-62
2023/07/23 07:01:41;;;;;;;39.70;38.30;;;24.30;59.00;;;;;;5112913;28;20489;-60
2023/07/23 07:04:08;;;;;;;37.83;36.53;;;24.40;58.80;;;;;;5112526;28;20524;-61
2023/07/23 07:06:38;;;;;;;38.00;36.70;;;24.50;58.30;;;;;;5111139;28;20480;-57
2023/07/23 07:09:07;;;;;;;41.37;39.87;;;24.60;58.20;;;;;;5107578;28;20477;-58
2023/07/23 07:11:34;;;;;;;39.43;38.00;;;24.70;57.60;;;;;;5110263;28;20497;-60
2023/07/23 07:14:03;;;;;;;39.43;37.90;;;24.90;57.50;;;;;;5112768;28;21175;-59
2023/07/23 07:16:30;;;;;;;43.10;41.47;;;25.00;57.30;;;;;;5112809;28;20445;-57
2023/07/23 07:18:58;;;;;;;39.40;38.10;;;25.10;56.90;;;;;;5112994;28;20470;-64
2023/07/23 07:21:25;;;;;;;39.60;38.20;;;25.20;56.70;;;;;;5113313;28;20445;-63
2023/07/23 07:23:57;;;;;;;39.80;38.40;;;25.40;57.20;;;;;;5112772;28;20469;-57
2023/07/23 07:26:24;;;;;;;38.67;37.23;;;25.40;56.00;;;;;;5112719;28;20479;-66
2023/07/23 07:28:53;;;;;;;40.33;38.83;;;25.50;56.30;;;;;;5112657;28;20866;-64
2023/07/23 07:31:20;;;;;;;41.33;39.83;;;25.50;55.90;;;;;;5112697;28;20480;-64
2023/07/23 07:33:50;;;;;;;38.30;37.00;;;25.50;55.80;;;;;;5112470;28;20692;-63
2023/07/23 07:36:18;;;;;;;40.47;38.93;;;25.50;55.80;;;;;;5111651;28;20468;-63
2023/07/23 07:38:46;;;;;;;41.17;39.77;;;25.60;55.70;;;;;;5112050;28;20511;-63
2023/07/23 07:41:17;;;;;;;39.30;37.90;;;25.60;55.50;;;;;;5112226;28;20476;-60
2023/07/23 07:43:44;;;;;;;40.90;39.00;;;25.60;55.60;;;;;;5112677;28;20988;-62
2023/07/23 07:46:17;;;;;;;39.50;38.10;;;25.60;55.30;;;;;;5112351;28;20441;-62
2023/07/23 07:48:45;;;;;;;38.90;37.60;;;25.70;55.40;;;;;;5111954;28;20534;-63
2023/07/23 07:51:12;;;;;;;38.90;37.50;;;25.80;55.10;;;;;;5112487;28;20449;-62
2023/07/23 07:53:42;;;;;;;41.27;39.77;;;25.90;54.90;;;;;;5112215;28;20444;-61
2023/07/23 07:56:16;;;;;;;39.70;37.90;;;25.90;54.60;;;;;;5111983;28;20473;-63
2023/07/23 07:58:47;;;;;;;40.97;39.57;;;25.90;54.50;;;;;;5112087;28;20466;-64
2023/07/23 08:01:15;;;;;;;39.53;38.23;;;25.90;54.50;;;;;;5110598;28;20502;-63
2023/07/23 08:03:43;;;;;;;41.07;39.57;;;25.90;54.50;;;;;;5112469;28;20452;-62
2023/07/23 08:06:13;;;;;;;39.73;38.43;;;25.70;54.80;;;;;;5111974;28;20850;-65
2023/07/23 08:08:43;;;;;;;40.50;39.00;;;25.60;55.60;;;;;;5110776;28;20845;-66
2023/07/23 08:11:18;;;;;;;39.43;38.03;;;25.70;56.30;;;;;;5117136;28;20567;-60
2023/07/23 08:13:49;;;;;;;40.73;39.23;;;25.80;56.10;;;;;;5115219;28;20861;-67
2023/07/23 08:16:19;;;;;;;41.13;39.73;;;25.90;55.90;;;;;;5114882;28;20480;-68
2023/07/23 08:18:46;;;;;;;37.87;36.57;;;26.00;55.50;;;;;;5115069;28;20549;-67
2023/07/23 08:21:14;;;;;;;39.00;37.70;;;26.10;55.40;;;;;;5115494;28;20473;-66
2023/07/23 08:23:43;;;;;;;41.50;40.10;;;26.20;55.20;;;;;;5114404;28;20529;-67
2023/07/23 08:26:26;;;;;;;42.27;40.80;;;26.30;55.40;;;;;;5123660;27;20468;-62
2023/07/23 08:29:01;;;;;;;41.07;39.60;;;26.30;55.70;;;;;;5107629;27;20471;-64
2023/07/23 08:31:34;;;;;;;41.23;39.73;;;26.30;55.80;;;;;;5116313;27;20946;-63
2023/07/23 08:34:04;;;;;;;42.90;41.23;;;26.40;55.90;;;;;;5135322;27;20911;-60
2023/07/23 08:36:32;;;;;;;43.43;41.83;;;26.40;56.20;;;;;;5135296;27;20572;-63
2023/07/23 08:39:08;;;;;;;39.57;38.17;;;26.40;56.40;;;;;;5134801;27;20902;-62
2023/07/23 08:41:38;;;;;;;42.23;40.83;;;26.50;56.50;;;;;;5135359;27;20834;-64
2023/07/23 08:44:48;;;;;;;40.90;39.50;;;26.60;56.40;;;;;;5111553;28;20506;-61
2023/07/23 08:47:17;;;;;;;42.90;41.40;;;26.60;56.40;;;;;;5113841;28;20469;-64
2023/07/23 08:49:46;;;;;;;41.30;39.90;;;26.60;56.40;;;;;;5114381;28;20555;-65
2023/07/23 08:52:17;;;;;;;42.17;40.67;;;26.70;56.70;;;;;;5114572;28;21016;-64
2023/07/23 08:54:47;;;;;;;42.87;41.27;;;26.70;56.40;;;;;;5114441;28;20441;-65
2023/07/23 08:57:16;;;;;;;42.20;40.70;;;26.70;56.70;;;;;;5095607;28;20801;-66
2023/07/23 08:59:49;;;;;;;41.70;40.10;;;26.70;56.70;;;;;;5115625;27;20434;-66
2023/07/23 09:02:17;;;;;;;43.30;41.80;;;26.80;57.00;;;;;;5118024;27;20477;-66
2023/07/23 09:04:44;;;;;;;42.30;40.70;;;26.80;57.10;;;;;;5134890;27;20825;-64
2023/07/23 09:07:14;;;;;;;43.20;41.70;;;26.80;56.90;;;;;;5134471;27;20475;-64
2023/07/23 09:09:47;;;;;;;45.73;44.03;;;26.90;57.00;;;;;;5126551;27;20505;-63
2023/07/23 09:12:15;;;;;;;42.57;40.80;;;26.90;57.10;;;;;;5113769;28;20503;-63
2023/07/23 09:14:46;;;;;;;41.00;39.60;;;26.90;57.00;;;;;;5129315;27;20476;-62
2023/07/23 09:17:21;;;;;;;42.60;41.13;;;27.00;56.90;;;;;;5134385;27;20455;-62
2023/07/23 09:19:55;;;;;;;42.83;41.33;;;27.00;57.20;;;;;;5126169;27;20980;-62
2023/07/23 09:22:25;;;;;;;40.30;38.90;;;27.00;57.40;;;;;;5128014;27;20479;-62
2023/07/23 09:24:59;;;;;;;42.43;40.50;;;27.00;57.40;;;;;;5134374;27;20476;-64
2023/07/23 09:27:37;;;;;;;43.53;42.07;;;27.00;57.50;;;;;;5134052;27;20461;-65
2023/07/23 09:33:07;;;;;;;41.90;40.50;;;27.00;57.70;;;;;;5133172;27;20441;-64
2023/07/23 09:35:37;;;;;;;40.67;39.27;;;27.00;57.80;;;;;;5126769;27;20984;-64
2023/07/23 09:38:05;;;;;;;42.97;41.37;;;27.00;58.00;;;;;;5113090;28;20477;-65
2023/07/23 09:40:36;;;;;;;42.47;41.00;;;27.00;58.30;;;;;;5121928;27;20529;-64
2023/07/23 09:45:57;;;;;;;40.63;39.03;;;27.10;59.10;;;;;;5118101;27;20448;-66
2023/07/23 09:48:29;;;;;;;40.57;39.17;;;27.10;58.90;;;;;;5132040;27;20468;-67
2023/07/23 09:53:41;;;;;;;42.83;41.30;;;27.10;59.70;;;;;;5133831;27;20940;-66
2023/07/23 09:56:09;;;;;;;41.40;39.77;;;27.10;59.60;;;;;;5133773;27;20437;-65
2023/07/23 09:58:37;;;;;;;42.47;40.67;;;27.10;59.60;;;;;;5130027;27;20553;-66
2023/07/23 10:01:06;;;;;;;40.13;38.73;;;27.10;59.50;;;;;;5113156;28;20850;-65
2023/07/23 10:03:34;;;;;;;39.13;37.83;;;27.10;59.60;;;;;;5131151;27;20536;-67
2023/07/23 10:06:01;;;;;;;39.40;38.00;;;27.10;59.80;;;;;;5120936;27;20437;-65
2023/07/23 10:08:28;;;;;;;40.60;39.10;;;27.10;59.80;;;;;;5112941;28;20517;-65
2023/07/23 10:10:55;;;;;;;40.60;39.27;;;27.10;59.60;;;;;;5112886;28;21016;-65
2023/07/23 10:13:22;;;;;;;40.53;39.13;;;27.10;59.50;;;;;;5113036;28;20536;-65
2023/07/23 10:15:51;;;;;;;39.83;38.50;;;27.10;59.30;;;;;;5113087;27;20545;-64
2023/07/23 10:18:23;;;;;;;40.90;39.50;;;27.10;59.10;;;;;;5116762;27;20547;-65
2023/07/23 10:20:50;;;;;;;41.53;39.80;;;27.10;59.10;;;;;;5092670;28;20870;-65
2023/07/23 10:23:17;;;;;;;41.97;40.20;;;27.10;59.20;;;;;;5092396;28;20446;-65
2023/07/23 10:25:44;;;;;;;42.60;40.47;;;27.20;60.30;;;;;;5092347;28;20450;-61
2023/07/23 10:28:22;;;;;;;35.87;33.63;;;27.20;63.20;;;;;;5095404;27;20497;-60
2023/07/23 10:31:19;;;;;;;31.63;29.43;;;27.20;63.50;;;;;;5112605;28;20516;-63
2023/07/23 10:33:49;;;;;;;30.53;28.93;;;27.20;64.10;;;;;;5112612;28;20521;-64
2023/07/23 10:36:17;;;;;;;30.57;29.00;;;27.20;63.80;;;;;;5112491;28;20477;-64
2023/07/23 10:38:44;;;;;;;29.07;27.50;;;27.20;62.70;;;;;;5112319;28;20466;-64
2023/07/23 10:41:11;;;;;;;29.47;28.17;;;27.20;61.80;;;;;;5112545;28;20521;-63
2023/07/23 10:43:41;;;;;;;32.17;30.27;;;27.20;61.90;;;;;;5112417;28;20521;-63
2023/07/23 10:46:09;;;;;;;28.83;27.53;;;27.10;60.70;;;;;;5112289;28;21013;-63
2023/07/23 10:48:41;;;;;;;31.67;29.60;;;27.10;60.50;;;;;;5112220;28;20552;-63
2023/07/23 10:51:11;;;;;;;30.93;29.43;;;27.00;60.30;;;;;;5112229;28;20913;-63
2023/07/23 10:53:43;;;;;;;29.43;28.07;;;26.80;60.10;;;;;;5112129;28;20969;-63
2023/07/23 10:56:23;;;;;;;28.90;27.70;;;26.70;60.00;;;;;;5112003;28;20520;-63
2023/07/23 10:58:50;;;;;;;29.07;27.77;;;26.60;60.20;;;;;;5112034;28;20898;-63
2023/07/23 11:01:22;;;;;;;28.63;27.50;;;26.50;60.40;;;;;;5112125;28;20900;-63
2023/07/23 11:03:49;;;;;;;30.07;28.63;;;26.30;60.30;;;;;;5112221;28;20473;-63
2023/07/23 11:06:31;;;;;;;28.87;27.50;;;26.30;60.60;;;;;;5111931;28;20473;-63
2023/07/23 11:09:02;;;;;;;27.93;26.73;;;26.10;60.70;;;;;;5111945;28;20496;-63
2023/07/23 11:11:34;;;;;;;28.50;27.20;;;26.00;60.90;;;;;;5111990;28;20513;-63
2023/07/23 11:14:04;;;;;;;29.03;27.77;;;25.90;61.00;;;;;;5111930;28;20528;-63
2023/07/23 11:16:34;;;;;;;29.03;27.37;;;25.80;61.30;;;;;;5111929;28;20563;-63
2023/07/23 11:19:01;;;;;;;29.20;27.90;;;25.70;61.60;;;;;;5111916;28;20911;-63
2023/07/23 11:21:30;;;;;;;27.80;26.80;;;25.60;61.70;;;;;;5111911;28;20480;-63
2023/07/23 11:23:58;;;;;;;29.00;27.80;;;25.60;62.00;;;;;;5111903;28;20524;-63
2023/07/23 11:26:23;;;;;;;29.83;28.47;;;25.50;62.40;;;;;;5111633;28;20481;-63
2023/07/23 11:28:51;;;;;;;29.10;27.53;;;25.40;62.40;;;;;;5111689;28;20508;-64
2023/07/23 11:31:18;;;;;;;28.70;27.50;;;25.40;62.70;;;;;;5111844;28;20220;-64
2023/07/23 11:33:45;;;;;;;28.10;27.10;;;25.30;62.70;;;;;;5111883;28;20860;-64
2023/07/23 11:36:12;;;;;;;26.80;25.53;;;25.20;62.90;;;;;;5111610;28;20528;-64
2023/07/23 11:38:40;;;;;;;27.00;25.90;;;25.20;63.20;;;;;;5111549;28;20619;-64
2023/07/23 11:41:07;;;;;;;26.57;25.47;;;25.10;63.30;;;;;;5111701;28;20473;-63
2023/07/23 11:43:35;;;;;;;27.80;26.60;;;25.00;63.30;;;;;;5111618;28;20533;-63
2023/07/23 11:46:02;;;;;;;25.90;24.80;;;25.00;63.50;;;;;;5115631;28;20441;-63
2023/07/23 11:48:29;;;;;;;26.17;25.17;;;25.00;63.70;;;;;;5115622;28;20556;-63
2023/07/23 11:50:56;;;;;;;25.93;24.93;;;24.90;63.90;;;;;;5115672;28;21003;-63
2023/07/23 11:53:36;;;;;;;27.20;26.00;;;24.90;63.90;;;;;;5115671;28;20807;-64
2023/07/23 11:56:10;;;;;;;28.60;27.40;;;24.80;64.00;;;;;;5115588;28;20444;-64
2023/07/23 11:58:37;;;;;;;29.97;28.57;;;24.80;64.20;;;;;;5115354;28;20473;-63
2023/07/23 12:01:05;;;;;;;27.90;26.90;;;24.70;64.20;;;;;;5115596;28;20469;-63
2023/07/23 12:03:34;;;;;;;28.63;27.57;;;24.70;64.50;;;;;;5115512;28;21025;-63
2023/07/23 12:06:02;;;;;;;28.10;26.90;;;24.70;64.80;;;;;;5115330;28;20445;-63
2023/07/23 12:08:30;;;;;;;27.73;26.63;;;24.70;64.90;;;;;;5115302;28;20544;-64
2023/07/23 12:10:57;;;;;;;28.93;27.53;;;24.60;65.10;;;;;;5115323;28;20492;-63
2023/07/23 12:13:26;;;;;;;30.23;29.03;;;24.60;65.10;;;;;;5115195;28;20532;-63
2023/07/23 12:15:57;;;;;;;30.10;28.90;;;24.60;65.30;;;;;;5115335;28;20867;-64
2023/07/23 12:18:27;;;;;;;30.30;29.10;;;24.50;65.10;;;;;;5115221;28;20469;-64
2023/07/23 12:20:59;;;;;;;27.90;26.70;;;24.50;66.00;;;;;;5115196;28;20922;-63
2023/07/23 12:23:25;;;;;;;27.77;26.47;;;24.50;65.40;;;;;;5115219;28;20449;-63
2023/07/23 12:25:52;;;;;;;28.20;26.77;;;24.50;65.50;;;;;;5115188;28;20437;-63
2023/07/23 12:28:24;;;;;;;28.83;27.73;;;24.50;65.50;;;;;;5114736;28;20548;-63
2023/07/23 12:30:52;;;;;;;27.37;26.27;;;24.40;65.60;;;;;;5114959;28;20476;-63
2023/07/23 12:33:19;;;;;;;28.00;26.93;;;24.40;65.60;;;;;;5114952;28;20846;-63
2023/07/23 12:35:46;;;;;;;28.10;27.00;;;24.40;65.70;;;;;;5114836;28;20520;-63
2023/07/23 12:38:12;;;;;;;27.30;26.07;;;24.40;65.60;;;;;;5114523;28;20548;-63
2023/07/23 12:40:39;;;;;;;28.13;27.00;;;24.40;65.80;;;;;;5114738;28;20524;-63
2023/07/23 12:43:06;;;;;;;29.80;28.47;;;24.40;65.80;;;;;;5114612;28;20532;-63